sensor_id;sensor_type;location;lat;lon;timestamp;P1;durP1;ratioP1;P2;durP2;ratioP2
2029;SDS011;1020;48.854;8.830;2022-12-22T00:01:53;0.90;;;0.90;;
2029;SDS011;1020;48.854;8.830;2022-12-22T00:04:38;1.20;;;1.10;;
2029;SDS011;1020;48.854;8.830;2022-12-22T00:07:26;1.50;;;1.40;;
2029;SDS011;1020;48.854;8.830;2022-12-22T00:10:11;2.43;;;0.90;;
2029;SDS011;1020;48.854;8.830;2022-12-22T00:12:55;1.40;;;1.30;;
2029;SDS011;1020;48.854;8.830;2022-12-22T00:15:40;1.23;;;1.13;;
2029;SDS011;1020;48.854;8.830;2022-12-22T00:18:24;1.10;;;0.90;;
2029;SDS011;1020;48.854;8.830;2022-12-22T00:21:09;1.27;;;1.17;;
2029;SDS011;1020;48.854;8.830;2022-12-22T00:23:56;1.20;;;1.10;;
2029;SDS011;1020;48.854;8.830;2022-12-22T00:26:40;0.90;;;0.90;;
2029;SDS011;1020;48.854;8.830;2022-12-22T00:29:25;1.80;;;1.40;;
2029;SDS011;1020;48.854;8.830;2022-12-22T00:32:14;1.77;;;1.30;;
2029;SDS011;1020;48.854;8.830;2022-12-22T00:34:59;2.53;;;1.30;;
2029;SDS011;1020;48.854;8.830;2022-12-22T00:37:43;1.50;;;1.40;;
2029;SDS011;1020;48.854;8.830;2022-12-22T00:40:29;1.73;;;1.33;;
2029;SDS011;1020;48.854;8.830;2022-12-22T00:43:13;1.40;;;1.30;;
2029;SDS011;1020;48.854;8.830;2022-12-22T00:45:57;0.90;;;0.90;;
2029;SDS011;1020;48.854;8.830;2022-12-22T00:48:44;1.20;;;1.10;;
2029;SDS011;1020;48.854;8.830;2022-12-22T00:51:29;2.10;;;1.20;;
2029;SDS011;1020;48.854;8.830;2022-12-22T00:54:15;1.80;;;1.20;;
2029;SDS011;1020;48.854;8.830;2022-12-22T00:57:03;3.53;;;1.63;;
2029;SDS011;1020;48.854;8.830;2022-12-22T00:59:47;1.20;;;1.20;;
2029;SDS011;1020;48.854;8.830;2022-12-22T01:02:32;1.30;;;1.20;;
2029;SDS011;1020;48.854;8.830;2022-12-22T01:05:17;2.50;;;1.27;;
2029;SDS011;1020;48.854;8.830;2022-12-22T01:08:01;1.40;;;1.30;;
2029;SDS011;1020;48.854;8.830;2022-12-22T01:10:45;1.97;;;1.33;;
2029;SDS011;1020;48.854;8.830;2022-12-22T01:13:31;1.50;;;1.40;;
2029;SDS011;1020;48.854;8.830;2022-12-22T01:16:16;1.67;;;1.57;;
2029;SDS011;1020;48.854;8.830;2022-12-22T01:19:00;1.60;;;1.50;;
2029;SDS011;1020;48.854;8.830;2022-12-22T01:21:45;2.10;;;1.90;;
2029;SDS011;1020;48.854;8.830;2022-12-22T01:24:29;1.80;;;1.70;;
2029;SDS011;1020;48.854;8.830;2022-12-22T01:27:13;1.70;;;1.60;;
2029;SDS011;1020;48.854;8.830;2022-12-22T01:30:00;1.60;;;1.50;;
2029;SDS011;1020;48.854;8.830;2022-12-22T01:32:44;2.10;;;1.90;;
2029;SDS011;1020;48.854;8.830;2022-12-22T01:35:30;1.80;;;1.70;;
2029;SDS011;1020;48.854;8.830;2022-12-22T01:38:16;1.93;;;1.83;;
2029;SDS011;1020;48.854;8.830;2022-12-22T01:41:00;1.80;;;1.70;;
2029;SDS011;1020;48.854;8.830;2022-12-22T01:43:45;1.77;;;1.67;;
2029;SDS011;1020;48.854;8.830;2022-12-22T01:46:32;1.50;;;1.40;;
2029;SDS011;1020;48.854;8.830;2022-12-22T01:49:21;1.47;;;1.37;;
2029;SDS011;1020;48.854;8.830;2022-12-22T01:52:08;3.13;;;1.83;;
2029;SDS011;1020;48.854;8.830;2022-12-22T01:54:55;2.27;;;1.30;;
2029;SDS011;1020;48.854;8.830;2022-12-22T01:57:42;1.57;;;1.17;;
2029;SDS011;1020;48.854;8.830;2022-12-22T02:00:26;2.43;;;1.37;;
2029;SDS011;1020;48.854;8.830;2022-12-22T02:03:16;1.50;;;1.40;;
2029;SDS011;1020;48.854;8.830;2022-12-22T02:06:06;1.60;;;1.50;;
2029;SDS011;1020;48.854;8.830;2022-12-22T02:09:05;1.50;;;1.47;;
2029;SDS011;1020;48.854;8.830;2022-12-22T02:12:01;1.57;;;1.20;;
2029;SDS011;1020;48.854;8.830;2022-12-22T02:14:54;1.27;;;1.17;;
2029;SDS011;1020;48.854;8.830;2022-12-22T02:17:46;1.27;;;0.93;;
2029;SDS011;1020;48.854;8.830;2022-12-22T02:20:42;1.00;;;1.00;;
2029;SDS011;1020;48.854;8.830;2022-12-22T02:23:37;1.10;;;1.10;;
2029;SDS011;1020;48.854;8.830;2022-12-22T02:26:34;3.37;;;0.70;;
2029;SDS011;1020;48.854;8.830;2022-12-22T02:29:25;1.17;;;1.00;;
2029;SDS011;1020;48.854;8.830;2022-12-22T02:32:12;1.10;;;0.80;;
2029;SDS011;1020;48.854;8.830;2022-12-22T02:34:56;1.33;;;1.20;;
2029;SDS011;1020;48.854;8.830;2022-12-22T02:37:43;1.73;;;0.90;;
2029;SDS011;1020;48.854;8.830;2022-12-22T02:40:33;0.93;;;0.80;;
2029;SDS011;1020;48.854;8.830;2022-12-22T02:43:28;2.20;;;1.30;;
2029;SDS011;1020;48.854;8.830;2022-12-22T02:46:27;1.40;;;0.90;;
2029;SDS011;1020;48.854;8.830;2022-12-22T02:49:18;0.87;;;0.87;;
2029;SDS011;1020;48.854;8.830;2022-12-22T02:52:07;1.00;;;0.90;;
2029;SDS011;1020;48.854;8.830;2022-12-22T02:54:54;0.83;;;0.83;;
2029;SDS011;1020;48.854;8.830;2022-12-22T02:57:39;1.03;;;0.93;;
2029;SDS011;1020;48.854;8.830;2022-12-22T03:00:24;1.00;;;1.00;;
2029;SDS011;1020;48.854;8.830;2022-12-22T03:03:08;0.80;;;0.80;;
2029;SDS011;1020;48.854;8.830;2022-12-22T03:05:53;1.53;;;0.73;;
2029;SDS011;1020;48.854;8.830;2022-12-22T03:08:37;1.10;;;0.90;;
2029;SDS011;1020;48.854;8.830;2022-12-22T03:11:21;1.37;;;1.10;;
2029;SDS011;1020;48.854;8.830;2022-12-22T03:14:05;2.10;;;1.00;;
2029;SDS011;1020;48.854;8.830;2022-12-22T03:16:51;0.80;;;0.80;;
2029;SDS011;1020;48.854;8.830;2022-12-22T03:19:35;0.70;;;0.70;;
2029;SDS011;1020;48.854;8.830;2022-12-22T03:22:20;2.60;;;0.80;;
2029;SDS011;1020;48.854;8.830;2022-12-22T03:25:04;1.13;;;0.90;;
2029;SDS011;1020;48.854;8.830;2022-12-22T03:27:49;0.60;;;0.60;;
2029;SDS011;1020;48.854;8.830;2022-12-22T03:30:16;1.47;;;0.93;;
2029;SDS011;1020;48.854;8.830;2022-12-22T03:32:45;1.87;;;0.90;;
2029;SDS011;1020;48.854;8.830;2022-12-22T03:35:12;0.83;;;0.83;;
2029;SDS011;1020;48.854;8.830;2022-12-22T03:37:38;0.70;;;0.50;;
2029;SDS011;1020;48.854;8.830;2022-12-22T03:40:06;1.40;;;0.77;;
2029;SDS011;1020;48.854;8.830;2022-12-22T03:42:34;0.77;;;0.77;;
2029;SDS011;1020;48.854;8.830;2022-12-22T03:45:18;1.10;;;0.80;;
2029;SDS011;1020;48.854;8.830;2022-12-22T03:48:02;1.47;;;0.90;;
2029;SDS011;1020;48.854;8.830;2022-12-22T03:50:29;0.97;;;0.73;;
2029;SDS011;1020;48.854;8.830;2022-12-22T03:52:56;0.90;;;0.90;;
2029;SDS011;1020;48.854;8.830;2022-12-22T03:55:23;1.53;;;0.80;;
2029;SDS011;1020;48.854;8.830;2022-12-22T03:57:50;1.03;;;0.90;;
2029;SDS011;1020;48.854;8.830;2022-12-22T04:00:17;1.30;;;1.03;;
2029;SDS011;1020;48.854;8.830;2022-12-22T04:02:44;1.73;;;0.80;;
2029;SDS011;1020;48.854;8.830;2022-12-22T04:05:13;1.23;;;0.70;;
2029;SDS011;1020;48.854;8.830;2022-12-22T04:07:39;2.00;;;1.17;;
2029;SDS011;1020;48.854;8.830;2022-12-22T04:10:07;0.90;;;0.90;;
2029;SDS011;1020;48.854;8.830;2022-12-22T04:12:52;0.70;;;0.70;;
2029;SDS011;1020;48.854;8.830;2022-12-22T04:15:20;1.63;;;0.97;;
2029;SDS011;1020;48.854;8.830;2022-12-22T04:17:47;1.57;;;0.90;;
2029;SDS011;1020;48.854;8.830;2022-12-22T04:20:16;0.90;;;0.90;;
2029;SDS011;1020;48.854;8.830;2022-12-22T04:22:44;1.03;;;0.80;;
2029;SDS011;1020;48.854;8.830;2022-12-22T04:25:10;3.50;;;1.17;;
2029;SDS011;1020;48.854;8.830;2022-12-22T04:27:38;3.13;;;1.20;;
2029;SDS011;1020;48.854;8.830;2022-12-22T04:30:05;3.60;;;1.10;;
2029;SDS011;1020;48.854;8.830;2022-12-22T04:32:33;0.90;;;0.70;;
2029;SDS011;1020;48.854;8.830;2022-12-22T04:35:00;1.97;;;1.10;;
2029;SDS011;1020;48.854;8.830;2022-12-22T04:37:28;0.90;;;0.90;;
2029;SDS011;1020;48.854;8.830;2022-12-22T04:39:55;1.57;;;1.03;;
2029;SDS011;1020;48.854;8.830;2022-12-22T04:42:22;1.30;;;1.20;;
2029;SDS011;1020;48.854;8.830;2022-12-22T04:44:49;1.40;;;1.30;;
2029;SDS011;1020;48.854;8.830;2022-12-22T04:47:15;1.90;;;1.20;;
2029;SDS011;1020;48.854;8.830;2022-12-22T04:49:42;2.93;;;1.17;;
2029;SDS011;1020;48.854;8.830;2022-12-22T04:52:09;2.90;;;1.60;;
2029;SDS011;1020;48.854;8.830;2022-12-22T04:54:38;2.83;;;1.77;;
2029;SDS011;1020;48.854;8.830;2022-12-22T04:57:04;3.40;;;1.60;;
2029;SDS011;1020;48.854;8.830;2022-12-22T04:59:31;2.20;;;1.60;;
2029;SDS011;1020;48.854;8.830;2022-12-22T05:01:58;2.83;;;1.10;;
2029;SDS011;1020;48.854;8.830;2022-12-22T05:04:25;1.33;;;1.23;;
2029;SDS011;1020;48.854;8.830;2022-12-22T05:06:52;2.40;;;1.30;;
2029;SDS011;1020;48.854;8.830;2022-12-22T05:09:19;1.30;;;1.20;;
2029;SDS011;1020;48.854;8.830;2022-12-22T05:11:47;1.53;;;1.13;;
2029;SDS011;1020;48.854;8.830;2022-12-22T05:14:14;2.20;;;1.13;;
2029;SDS011;1020;48.854;8.830;2022-12-22T05:16:40;1.47;;;1.37;;
2029;SDS011;1020;48.854;8.830;2022-12-22T05:19:07;2.80;;;1.60;;
2029;SDS011;1020;48.854;8.830;2022-12-22T05:21:34;1.40;;;1.30;;
2029;SDS011;1020;48.854;8.830;2022-12-22T05:24:01;3.30;;;3.00;;
2029;SDS011;1020;48.854;8.830;2022-12-22T05:26:28;4.17;;;2.40;;
2029;SDS011;1020;48.854;8.830;2022-12-22T05:28:56;3.30;;;3.00;;
2029;SDS011;1020;48.854;8.830;2022-12-22T05:31:23;2.43;;;2.30;;
2029;SDS011;1020;48.854;8.830;2022-12-22T05:33:51;2.17;;;1.40;;
2029;SDS011;1020;48.854;8.830;2022-12-22T05:36:18;2.20;;;1.50;;
2029;SDS011;1020;48.854;8.830;2022-12-22T05:38:45;1.43;;;1.33;;
2029;SDS011;1020;48.854;8.830;2022-12-22T05:41:12;2.97;;;2.20;;
2029;SDS011;1020;48.854;8.830;2022-12-22T05:43:39;2.40;;;1.90;;
2029;SDS011;1020;48.854;8.830;2022-12-22T05:46:08;1.70;;;1.60;;
2029;SDS011;1020;48.854;8.830;2022-12-22T05:48:36;3.63;;;1.70;;
2029;SDS011;1020;48.854;8.830;2022-12-22T05:51:03;1.80;;;1.70;;
2029;SDS011;1020;48.854;8.830;2022-12-22T05:53:30;2.00;;;1.40;;
2029;SDS011;1020;48.854;8.830;2022-12-22T05:55:57;2.00;;;1.30;;
2029;SDS011;1020;48.854;8.830;2022-12-22T05:58:24;1.03;;;0.93;;
2029;SDS011;1020;48.854;8.830;2022-12-22T06:00:51;1.30;;;0.80;;
2029;SDS011;1020;48.854;8.830;2022-12-22T06:03:22;0.80;;;0.80;;
2029;SDS011;1020;48.854;8.830;2022-12-22T06:05:50;3.40;;;1.23;;
2029;SDS011;1020;48.854;8.830;2022-12-22T06:08:16;3.47;;;1.00;;
2029;SDS011;1020;48.854;8.830;2022-12-22T06:10:43;6.17;;;1.87;;
2029;SDS011;1020;48.854;8.830;2022-12-22T06:13:11;2.03;;;1.50;;
2029;SDS011;1020;48.854;8.830;2022-12-22T06:15:37;1.70;;;1.60;;
2029;SDS011;1020;48.854;8.830;2022-12-22T06:18:04;2.57;;;1.00;;
2029;SDS011;1020;48.854;8.830;2022-12-22T06:20:32;1.90;;;1.00;;
2029;SDS011;1020;48.854;8.830;2022-12-22T06:22:59;4.07;;;1.80;;
2029;SDS011;1020;48.854;8.830;2022-12-22T06:25:27;2.27;;;1.10;;
2029;SDS011;1020;48.854;8.830;2022-12-22T06:27:54;3.37;;;1.37;;
2029;SDS011;1020;48.854;8.830;2022-12-22T06:30:21;1.80;;;1.50;;
2029;SDS011;1020;48.854;8.830;2022-12-22T06:32:48;1.53;;;1.40;;
2029;SDS011;1020;48.854;8.830;2022-12-22T06:35:14;2.40;;;1.40;;
2029;SDS011;1020;48.854;8.830;2022-12-22T06:37:43;3.67;;;1.23;;
2029;SDS011;1020;48.854;8.830;2022-12-22T06:40:10;4.40;;;2.00;;
2029;SDS011;1020;48.854;8.830;2022-12-22T06:42:37;3.23;;;1.60;;
2029;SDS011;1020;48.854;8.830;2022-12-22T06:45:21;2.33;;;1.43;;
2029;SDS011;1020;48.854;8.830;2022-12-22T06:47:48;4.00;;;1.53;;
2029;SDS011;1020;48.854;8.830;2022-12-22T06:50:14;2.93;;;1.73;;
2029;SDS011;1020;48.854;8.830;2022-12-22T06:52:43;4.47;;;3.30;;
2029;SDS011;1020;48.854;8.830;2022-12-22T06:55:09;2.70;;;1.60;;
2029;SDS011;1020;48.854;8.830;2022-12-22T06:57:36;3.93;;;1.57;;
2029;SDS011;1020;48.854;8.830;2022-12-22T07:00:03;3.03;;;1.40;;
2029;SDS011;1020;48.854;8.830;2022-12-22T07:02:31;3.87;;;1.37;;
2029;SDS011;1020;48.854;8.830;2022-12-22T07:04:58;1.53;;;1.10;;
2029;SDS011;1020;48.854;8.830;2022-12-22T07:07:25;2.87;;;1.80;;
2029;SDS011;1020;48.854;8.830;2022-12-22T07:09:53;2.57;;;1.43;;
2029;SDS011;1020;48.854;8.830;2022-12-22T07:12:20;3.10;;;1.73;;
2029;SDS011;1020;48.854;8.830;2022-12-22T07:14:47;4.63;;;1.90;;
2029;SDS011;1020;48.854;8.830;2022-12-22T07:17:14;6.37;;;1.80;;
2029;SDS011;1020;48.854;8.830;2022-12-22T07:19:40;4.13;;;2.20;;
2029;SDS011;1020;48.854;8.830;2022-12-22T07:22:07;4.13;;;2.00;;
2029;SDS011;1020;48.854;8.830;2022-12-22T07:24:34;4.77;;;2.40;;
2029;SDS011;1020;48.854;8.830;2022-12-22T07:27:02;2.13;;;1.37;;
2029;SDS011;1020;48.854;8.830;2022-12-22T07:29:29;4.23;;;1.63;;
2029;SDS011;1020;48.854;8.830;2022-12-22T07:31:56;3.33;;;1.37;;
2029;SDS011;1020;48.854;8.830;2022-12-22T07:34:23;3.87;;;1.23;;
2029;SDS011;1020;48.854;8.830;2022-12-22T07:36:49;3.10;;;1.33;;
2029;SDS011;1020;48.854;8.830;2022-12-22T07:39:16;2.90;;;1.63;;
2029;SDS011;1020;48.854;8.830;2022-12-22T07:41:43;7.00;;;1.83;;
2029;SDS011;1020;48.854;8.830;2022-12-22T07:44:29;5.10;;;2.17;;
2029;SDS011;1020;48.854;8.830;2022-12-22T07:46:56;1.93;;;1.40;;
2029;SDS011;1020;48.854;8.830;2022-12-22T07:49:22;4.73;;;3.87;;
2029;SDS011;1020;48.854;8.830;2022-12-22T07:52:07;3.50;;;1.67;;
2029;SDS011;1020;48.854;8.830;2022-12-22T07:54:34;4.83;;;1.67;;
2029;SDS011;1020;48.854;8.830;2022-12-22T07:57:01;6.13;;;3.00;;
2029;SDS011;1020;48.854;8.830;2022-12-22T07:59:29;2.67;;;1.63;;
2029;SDS011;1020;48.854;8.830;2022-12-22T08:01:56;25.30;;;17.23;;
2029;SDS011;1020;48.854;8.830;2022-12-22T08:04:23;3.27;;;2.27;;
2029;SDS011;1020;48.854;8.830;2022-12-22T08:06:49;7.07;;;2.33;;
2029;SDS011;1020;48.854;8.830;2022-12-22T08:09:16;4.50;;;3.30;;
2029;SDS011;1020;48.854;8.830;2022-12-22T08:11:45;2.80;;;2.27;;
2029;SDS011;1020;48.854;8.830;2022-12-22T08:14:13;3.83;;;2.00;;
2029;SDS011;1020;48.854;8.830;2022-12-22T08:16:41;3.50;;;1.60;;
2029;SDS011;1020;48.854;8.830;2022-12-22T08:19:08;1.60;;;1.40;;
2029;SDS011;1020;48.854;8.830;2022-12-22T08:21:34;6.40;;;2.47;;
2029;SDS011;1020;48.854;8.830;2022-12-22T08:24:01;3.73;;;1.33;;
2029;SDS011;1020;48.854;8.830;2022-12-22T08:26:30;3.77;;;2.07;;
2029;SDS011;1020;48.854;8.830;2022-12-22T08:29:01;3.50;;;1.50;;
2029;SDS011;1020;48.854;8.830;2022-12-22T08:31:31;6.90;;;2.13;;
2029;SDS011;1020;48.854;8.830;2022-12-22T08:34:01;3.00;;;1.60;;
2029;SDS011;1020;48.854;8.830;2022-12-22T08:36:30;5.10;;;2.17;;
2029;SDS011;1020;48.854;8.830;2022-12-22T08:39:00;3.00;;;1.87;;
2029;SDS011;1020;48.854;8.830;2022-12-22T08:41:27;4.87;;;2.50;;
2029;SDS011;1020;48.854;8.830;2022-12-22T08:44:12;2.93;;;1.90;;
2029;SDS011;1020;48.854;8.830;2022-12-22T08:46:39;4.50;;;2.30;;
2029;SDS011;1020;48.854;8.830;2022-12-22T08:49:07;3.67;;;1.83;;
2029;SDS011;1020;48.854;8.830;2022-12-22T08:51:34;4.57;;;1.97;;
2029;SDS011;1020;48.854;8.830;2022-12-22T08:54:01;4.17;;;1.87;;
2029;SDS011;1020;48.854;8.830;2022-12-22T08:56:28;6.70;;;2.50;;
2029;SDS011;1020;48.854;8.830;2022-12-22T08:58:55;6.13;;;1.57;;
2029;SDS011;1020;48.854;8.830;2022-12-22T09:01:22;1.70;;;1.40;;
2029;SDS011;1020;48.854;8.830;2022-12-22T09:03:49;3.13;;;1.63;;
2029;SDS011;1020;48.854;8.830;2022-12-22T09:06:18;5.40;;;1.80;;
2029;SDS011;1020;48.854;8.830;2022-12-22T09:08:47;3.93;;;1.70;;
2029;SDS011;1020;48.854;8.830;2022-12-22T09:11:14;3.93;;;1.10;;
2029;SDS011;1020;48.854;8.830;2022-12-22T09:13:41;3.60;;;1.80;;
2029;SDS011;1020;48.854;8.830;2022-12-22T09:16:08;3.10;;;1.40;;
2029;SDS011;1020;48.854;8.830;2022-12-22T09:18:35;5.60;;;2.60;;
2029;SDS011;1020;48.854;8.830;2022-12-22T09:21:02;5.13;;;2.87;;
2029;SDS011;1020;48.854;8.830;2022-12-22T09:23:30;2.17;;;1.30;;
2029;SDS011;1020;48.854;8.830;2022-12-22T09:25:57;7.80;;;2.30;;
2029;SDS011;1020;48.854;8.830;2022-12-22T09:28:24;4.10;;;1.43;;
2029;SDS011;1020;48.854;8.830;2022-12-22T09:30:50;2.93;;;1.27;;
2029;SDS011;1020;48.854;8.830;2022-12-22T09:33:18;3.77;;;1.20;;
2029;SDS011;1020;48.854;8.830;2022-12-22T09:35:44;3.47;;;1.40;;
2029;SDS011;1020;48.854;8.830;2022-12-22T09:38:11;1.83;;;1.10;;
2029;SDS011;1020;48.854;8.830;2022-12-22T09:40:39;2.70;;;1.30;;
2029;SDS011;1020;48.854;8.830;2022-12-22T09:43:07;5.40;;;2.17;;
2029;SDS011;1020;48.854;8.830;2022-12-22T09:45:37;2.40;;;1.33;;
2029;SDS011;1020;48.854;8.830;2022-12-22T09:48:05;6.30;;;2.23;;
2029;SDS011;1020;48.854;8.830;2022-12-22T09:50:35;4.20;;;1.87;;
2029;SDS011;1020;48.854;8.830;2022-12-22T09:53:04;5.27;;;1.40;;
2029;SDS011;1020;48.854;8.830;2022-12-22T09:55:44;4.27;;;2.47;;
2029;SDS011;1020;48.854;8.830;2022-12-22T09:58:14;3.50;;;2.00;;
2029;SDS011;1020;48.854;8.830;2022-12-22T10:00:44;3.63;;;2.27;;
2029;SDS011;1020;48.854;8.830;2022-12-22T10:03:19;2.93;;;1.73;;
2029;SDS011;1020;48.854;8.830;2022-12-22T10:06:00;2.40;;;1.50;;
2029;SDS011;1020;48.854;8.830;2022-12-22T10:08:34;2.93;;;2.10;;
2029;SDS011;1020;48.854;8.830;2022-12-22T10:11:06;6.00;;;1.80;;
2029;SDS011;1020;48.854;8.830;2022-12-22T10:13:37;8.10;;;4.50;;
2029;SDS011;1020;48.854;8.830;2022-12-22T10:16:14;3.17;;;1.60;;
2029;SDS011;1020;48.854;8.830;2022-12-22T10:18:55;2.20;;;1.40;;
2029;SDS011;1020;48.854;8.830;2022-12-22T10:21:24;2.27;;;1.30;;
2029;SDS011;1020;48.854;8.830;2022-12-22T10:23:51;2.27;;;1.60;;
2029;SDS011;1020;48.854;8.830;2022-12-22T10:26:20;3.17;;;1.07;;
2029;SDS011;1020;48.854;8.830;2022-12-22T10:28:50;2.93;;;1.33;;
2029;SDS011;1020;48.854;8.830;2022-12-22T10:31:20;1.60;;;1.00;;
2029;SDS011;1020;48.854;8.830;2022-12-22T10:33:49;6.40;;;2.23;;
2029;SDS011;1020;48.854;8.830;2022-12-22T10:36:19;5.93;;;4.17;;
2029;SDS011;1020;48.854;8.830;2022-12-22T10:38:52;4.40;;;2.67;;
2029;SDS011;1020;48.854;8.830;2022-12-22T10:41:25;2.40;;;1.93;;
2029;SDS011;1020;48.854;8.830;2022-12-22T10:43:54;5.17;;;2.40;;
2029;SDS011;1020;48.854;8.830;2022-12-22T10:46:27;3.43;;;2.50;;
2029;SDS011;1020;48.854;8.830;2022-12-22T10:49:07;1.13;;;1.03;;
2029;SDS011;1020;48.854;8.830;2022-12-22T10:51:37;3.93;;;2.40;;
2029;SDS011;1020;48.854;8.830;2022-12-22T10:54:05;3.90;;;2.00;;
2029;SDS011;1020;48.854;8.830;2022-12-22T10:56:35;1.23;;;0.73;;
2029;SDS011;1020;48.854;8.830;2022-12-22T10:59:12;0.80;;;0.80;;
2029;SDS011;1020;48.854;8.830;2022-12-22T11:01:44;1.33;;;1.03;;
2029;SDS011;1020;48.854;8.830;2022-12-22T11:04:14;2.97;;;1.20;;
2029;SDS011;1020;48.854;8.830;2022-12-22T11:06:42;1.03;;;0.60;;
2029;SDS011;1020;48.854;8.830;2022-12-22T11:09:09;2.17;;;0.90;;
2029;SDS011;1020;48.854;8.830;2022-12-22T11:11:38;0.87;;;0.60;;
2029;SDS011;1020;48.854;8.830;2022-12-22T11:14:13;1.80;;;0.80;;
2029;SDS011;1020;48.854;8.830;2022-12-22T11:16:45;2.40;;;0.97;;
2029;SDS011;1020;48.854;8.830;2022-12-22T11:22:07;2.07;;;1.87;;
2029;SDS011;1020;48.854;8.830;2022-12-22T11:24:44;1.83;;;1.27;;
2029;SDS011;1020;48.854;8.830;2022-12-22T11:27:24;5.63;;;3.30;;
2029;SDS011;1020;48.854;8.830;2022-12-22T11:30:00;3.87;;;1.00;;
2029;SDS011;1020;48.854;8.830;2022-12-22T11:32:35;4.43;;;3.90;;
2029;SDS011;1020;48.854;8.830;2022-12-22T11:35:18;2.20;;;1.63;;
2029;SDS011;1020;48.854;8.830;2022-12-22T11:37:52;2.40;;;1.03;;
2029;SDS011;1020;48.854;8.830;2022-12-22T11:40:27;1.53;;;0.80;;
2029;SDS011;1020;48.854;8.830;2022-12-22T11:43:09;0.97;;;0.70;;
2029;SDS011;1020;48.854;8.830;2022-12-22T11:45:50;1.07;;;0.80;;
2029;SDS011;1020;48.854;8.830;2022-12-22T11:48:38;1.60;;;1.00;;
2029;SDS011;1020;48.854;8.830;2022-12-22T11:51:19;1.17;;;0.70;;
2029;SDS011;1020;48.854;8.830;2022-12-22T11:54:02;1.23;;;0.80;;
2029;SDS011;1020;48.854;8.830;2022-12-22T11:56:48;1.63;;;0.63;;
2029;SDS011;1020;48.854;8.830;2022-12-22T11:59:26;1.60;;;0.70;;
2029;SDS011;1020;48.854;8.830;2022-12-22T12:02:18;1.30;;;0.73;;
2029;SDS011;1020;48.854;8.830;2022-12-22T12:08:18;1.13;;;0.70;;
2029;SDS011;1020;48.854;8.830;2022-12-22T12:10:55;1.77;;;1.10;;
2029;SDS011;1020;48.854;8.830;2022-12-22T12:13:31;2.03;;;0.90;;
2029;SDS011;1020;48.854;8.830;2022-12-22T12:16:07;1.10;;;0.60;;
2029;SDS011;1020;48.854;8.830;2022-12-22T12:18:45;1.10;;;1.00;;
2029;SDS011;1020;48.854;8.830;2022-12-22T12:21:25;3.73;;;0.97;;
2029;SDS011;1020;48.854;8.830;2022-12-22T12:24:03;1.77;;;0.80;;
2029;SDS011;1020;48.854;8.830;2022-12-22T12:26:43;1.83;;;0.90;;
2029;SDS011;1020;48.854;8.830;2022-12-22T12:29:18;1.27;;;1.10;;
2029;SDS011;1020;48.854;8.830;2022-12-22T12:31:48;0.90;;;0.77;;
2029;SDS011;1020;48.854;8.830;2022-12-22T12:34:20;0.60;;;0.60;;
2029;SDS011;1020;48.854;8.830;2022-12-22T12:36:48;1.50;;;1.00;;
2029;SDS011;1020;48.854;8.830;2022-12-22T12:39:22;2.97;;;0.80;;
2029;SDS011;1020;48.854;8.830;2022-12-22T12:41:57;1.17;;;1.00;;
2029;SDS011;1020;48.854;8.830;2022-12-22T12:44:30;1.87;;;1.20;;
2029;SDS011;1020;48.854;8.830;2022-12-22T12:49:59;4.17;;;1.43;;
2029;SDS011;1020;48.854;8.830;2022-12-22T12:58:47;1.30;;;1.10;;
2029;SDS011;1020;48.854;8.830;2022-12-22T13:10:35;3.93;;;1.00;;
2029;SDS011;1020;48.854;8.830;2022-12-22T13:13:05;2.50;;;1.10;;
2029;SDS011;1020;48.854;8.830;2022-12-22T13:15:35;2.00;;;0.90;;
2029;SDS011;1020;48.854;8.830;2022-12-22T13:18:06;2.63;;;1.30;;
2029;SDS011;1020;48.854;8.830;2022-12-22T13:20:56;2.30;;;1.20;;
2029;SDS011;1020;48.854;8.830;2022-12-22T13:23:27;3.20;;;1.40;;
2029;SDS011;1020;48.854;8.830;2022-12-22T13:26:01;2.10;;;1.40;;
2029;SDS011;1020;48.854;8.830;2022-12-22T13:28:33;6.77;;;1.60;;
2029;SDS011;1020;48.854;8.830;2022-12-22T13:31:13;2.80;;;1.30;;
2029;SDS011;1020;48.854;8.830;2022-12-22T13:33:44;2.73;;;1.60;;
2029;SDS011;1020;48.854;8.830;2022-12-22T13:36:15;4.60;;;1.37;;
2029;SDS011;1020;48.854;8.830;2022-12-22T13:38:46;2.80;;;1.30;;
2029;SDS011;1020;48.854;8.830;2022-12-22T13:41:22;3.27;;;1.40;;
2029;SDS011;1020;48.854;8.830;2022-12-22T13:43:50;3.50;;;1.40;;
2029;SDS011;1020;48.854;8.830;2022-12-22T13:46:22;1.37;;;1.27;;
2029;SDS011;1020;48.854;8.830;2022-12-22T13:48:49;2.90;;;1.57;;
2029;SDS011;1020;48.854;8.830;2022-12-22T13:51:20;2.00;;;1.10;;
2029;SDS011;1020;48.854;8.830;2022-12-22T13:53:51;4.30;;;1.73;;
2029;SDS011;1020;48.854;8.830;2022-12-22T13:56:21;2.20;;;1.37;;
2029;SDS011;1020;48.854;8.830;2022-12-22T13:58:52;4.70;;;1.73;;
2029;SDS011;1020;48.854;8.830;2022-12-22T14:01:23;3.70;;;1.10;;
2029;SDS011;1020;48.854;8.830;2022-12-22T14:03:51;4.30;;;1.60;;
2029;SDS011;1020;48.854;8.830;2022-12-22T14:06:25;1.60;;;1.20;;
2029;SDS011;1020;48.854;8.830;2022-12-22T14:08:54;3.30;;;1.43;;
2029;SDS011;1020;48.854;8.830;2022-12-22T14:11:38;2.60;;;1.17;;
2029;SDS011;1020;48.854;8.830;2022-12-22T14:14:06;6.00;;;1.33;;
2029;SDS011;1020;48.854;8.830;2022-12-22T14:16:33;7.43;;;1.83;;
2029;SDS011;1020;48.854;8.830;2022-12-22T14:19:06;4.47;;;2.33;;
2029;SDS011;1020;48.854;8.830;2022-12-22T14:21:36;3.13;;;1.30;;
2029;SDS011;1020;48.854;8.830;2022-12-22T14:24:04;5.67;;;2.30;;
2029;SDS011;1020;48.854;8.830;2022-12-22T14:26:31;4.40;;;2.90;;
2029;SDS011;1020;48.854;8.830;2022-12-22T14:28:58;5.90;;;2.20;;
2029;SDS011;1020;48.854;8.830;2022-12-22T14:31:25;8.57;;;3.60;;
2029;SDS011;1020;48.854;8.830;2022-12-22T14:33:52;9.20;;;5.20;;
2029;SDS011;1020;48.854;8.830;2022-12-22T14:36:21;8.93;;;2.53;;
2029;SDS011;1020;48.854;8.830;2022-12-22T14:38:50;6.33;;;2.30;;
2029;SDS011;1020;48.854;8.830;2022-12-22T14:41:20;6.03;;;2.23;;
2029;SDS011;1020;48.854;8.830;2022-12-22T14:44:11;8.97;;;2.80;;
2029;SDS011;1020;48.854;8.830;2022-12-22T14:46:40;7.70;;;2.27;;
2029;SDS011;1020;48.854;8.830;2022-12-22T14:49:12;9.97;;;3.80;;
2029;SDS011;1020;48.854;8.830;2022-12-22T14:51:41;6.70;;;3.07;;
2029;SDS011;1020;48.854;8.830;2022-12-22T14:54:16;10.53;;;3.40;;
2029;SDS011;1020;48.854;8.830;2022-12-22T14:56:47;11.97;;;2.50;;
2029;SDS011;1020;48.854;8.830;2022-12-22T14:59:22;6.43;;;2.50;;
2029;SDS011;1020;48.854;8.830;2022-12-22T15:01:56;8.27;;;2.40;;
2029;SDS011;1020;48.854;8.830;2022-12-22T15:04:25;16.00;;;6.37;;
2029;SDS011;1020;48.854;8.830;2022-12-22T15:06:51;6.50;;;2.60;;
2029;SDS011;1020;48.854;8.830;2022-12-22T15:09:30;15.80;;;7.23;;
2029;SDS011;1020;48.854;8.830;2022-12-22T15:12:08;14.70;;;5.63;;
2029;SDS011;1020;48.854;8.830;2022-12-22T15:14:37;9.50;;;2.83;;
2029;SDS011;1020;48.854;8.830;2022-12-22T15:17:05;23.70;;;11.73;;
2029;SDS011;1020;48.854;8.830;2022-12-22T15:19:38;5.63;;;2.40;;
2029;SDS011;1020;48.854;8.830;2022-12-22T15:22:05;6.47;;;3.30;;
2029;SDS011;1020;48.854;8.830;2022-12-22T15:24:32;11.30;;;2.93;;
2029;SDS011;1020;48.854;8.830;2022-12-22T15:26:59;11.83;;;3.83;;
2029;SDS011;1020;48.854;8.830;2022-12-22T15:29:27;10.10;;;3.97;;
2029;SDS011;1020;48.854;8.830;2022-12-22T15:31:54;9.57;;;3.43;;
2029;SDS011;1020;48.854;8.830;2022-12-22T15:34:22;11.77;;;3.00;;
2029;SDS011;1020;48.854;8.830;2022-12-22T15:36:50;7.67;;;3.43;;
2029;SDS011;1020;48.854;8.830;2022-12-22T15:39:18;6.83;;;2.93;;
2029;SDS011;1020;48.854;8.830;2022-12-22T15:41:46;11.10;;;3.40;;
2029;SDS011;1020;48.854;8.830;2022-12-22T15:44:13;9.77;;;3.90;;
2029;SDS011;1020;48.854;8.830;2022-12-22T15:46:42;12.00;;;5.77;;
2029;SDS011;1020;48.854;8.830;2022-12-22T15:49:15;13.80;;;2.77;;
2029;SDS011;1020;48.854;8.830;2022-12-22T15:51:46;8.63;;;2.80;;
2029;SDS011;1020;48.854;8.830;2022-12-22T15:54:16;10.50;;;3.40;;
2029;SDS011;1020;48.854;8.830;2022-12-22T15:56:44;8.83;;;2.73;;
2029;SDS011;1020;48.854;8.830;2022-12-22T15:59:12;8.23;;;2.47;;
2029;SDS011;1020;48.854;8.830;2022-12-22T16:01:42;11.03;;;3.30;;
2029;SDS011;1020;48.854;8.830;2022-12-22T16:04:09;8.67;;;3.10;;
2029;SDS011;1020;48.854;8.830;2022-12-22T16:06:36;10.53;;;3.50;;
2029;SDS011;1020;48.854;8.830;2022-12-22T16:09:04;9.93;;;3.37;;
2029;SDS011;1020;48.854;8.830;2022-12-22T16:11:35;5.50;;;4.43;;
2029;SDS011;1020;48.854;8.830;2022-12-22T16:14:03;8.80;;;2.97;;
2029;SDS011;1020;48.854;8.830;2022-12-22T16:16:30;13.40;;;5.10;;
2029;SDS011;1020;48.854;8.830;2022-12-22T16:18:58;9.13;;;3.57;;